sensor_id;sensor_type;location;lat;lon;timestamp;P1;durP1;ratioP1;P2;durP2;ratioP2
28836;SDS011;50669;50.982;11.022;2023-06-14T00:02:19;5.47;;;4.32;;
28836;SDS011;50669;50.982;11.022;2023-06-14T00:04:45;7.20;;;4.35;;
28836;SDS011;50669;50.982;11.022;2023-06-14T00:07:13;5.00;;;4.32;;
28836;SDS011;50669;50.982;11.022;2023-06-14T00:09:41;6.15;;;4.35;;
28836;SDS011;50669;50.982;11.022;2023-06-14T00:12:09;6.65;;;4.53;;
28836;SDS011;50669;50.982;11.022;2023-06-14T00:14:35;5.75;;;4.47;;
28836;SDS011;50669;50.982;11.022;2023-06-14T00:17:00;8.48;;;3.83;;
28836;SDS011;50669;50.982;11.022;2023-06-14T00:19:27;4.80;;;4.18;;
28836;SDS011;50669;50.982;11.022;2023-06-14T00:21:56;7.22;;;4.25;;
28836;SDS011;50669;50.982;11.022;2023-06-14T00:24:22;5.85;;;4.28;;
28836;SDS011;50669;50.982;11.022;2023-06-14T00:26:48;7.95;;;4.40;;
28836;SDS011;50669;50.982;11.022;2023-06-14T00:29:13;5.60;;;4.20;;
28836;SDS011;50669;50.982;11.022;2023-06-14T00:31:42;7.32;;;4.03;;
28836;SDS011;50669;50.982;11.022;2023-06-14T00:34:12;5.75;;;4.03;;
28836;SDS011;50669;50.982;11.022;2023-06-14T00:36:37;5.57;;;3.65;;
28836;SDS011;50669;50.982;11.022;2023-06-14T00:39:03;5.25;;;4.13;;
28836;SDS011;50669;50.982;11.022;2023-06-14T00:41:31;4.57;;;4.18;;
28836;SDS011;50669;50.982;11.022;2023-06-14T00:43:57;7.90;;;3.67;;
28836;SDS011;50669;50.982;11.022;2023-06-14T00:46:23;3.97;;;3.45;;
28836;SDS011;50669;50.982;11.022;2023-06-14T00:48:51;4.72;;;3.53;;
28836;SDS011;50669;50.982;11.022;2023-06-14T00:51:18;4.05;;;3.58;;
28836;SDS011;50669;50.982;11.022;2023-06-14T00:53:44;4.57;;;3.90;;
28836;SDS011;50669;50.982;11.022;2023-06-14T00:56:14;3.80;;;3.42;;
28836;SDS011;50669;50.982;11.022;2023-06-14T00:58:41;3.85;;;3.47;;
28836;SDS011;50669;50.982;11.022;2023-06-14T01:01:07;5.57;;;3.83;;
28836;SDS011;50669;50.982;11.022;2023-06-14T01:03:32;5.93;;;3.70;;
28836;SDS011;50669;50.982;11.022;2023-06-14T01:14:56;5.78;;;3.85;;
28836;SDS011;50669;50.982;11.022;2023-06-14T01:17:24;4.95;;;3.95;;
28836;SDS011;50669;50.982;11.022;2023-06-14T01:19:57;6.03;;;4.05;;
28836;SDS011;50669;50.982;11.022;2023-06-14T01:22:32;5.43;;;3.92;;
28836;SDS011;50669;50.982;11.022;2023-06-14T01:24:58;4.72;;;3.65;;
28836;SDS011;50669;50.982;11.022;2023-06-14T01:27:26;4.72;;;3.47;;
28836;SDS011;50669;50.982;11.022;2023-06-14T01:29:53;5.40;;;3.88;;
28836;SDS011;50669;50.982;11.022;2023-06-14T01:32:25;5.32;;;3.60;;
28836;SDS011;50669;50.982;11.022;2023-06-14T01:34:57;5.53;;;4.30;;
28836;SDS011;50669;50.982;11.022;2023-06-14T01:37:23;8.15;;;4.20;;
28836;SDS011;50669;50.982;11.022;2023-06-14T01:39:48;7.22;;;3.95;;
28836;SDS011;50669;50.982;11.022;2023-06-14T01:42:18;4.82;;;3.60;;
28836;SDS011;50669;50.982;11.022;2023-06-14T01:44:44;5.20;;;3.75;;
28836;SDS011;50669;50.982;11.022;2023-06-14T01:47:11;5.70;;;4.03;;
28836;SDS011;50669;50.982;11.022;2023-06-14T01:49:38;6.10;;;3.80;;
28836;SDS011;50669;50.982;11.022;2023-06-14T01:52:04;5.68;;;3.53;;
28836;SDS011;50669;50.982;11.022;2023-06-14T01:54:31;8.70;;;3.63;;
28836;SDS011;50669;50.982;11.022;2023-06-14T01:56:57;8.88;;;3.50;;
28836;SDS011;50669;50.982;11.022;2023-06-14T01:59:22;5.63;;;3.40;;
28836;SDS011;50669;50.982;11.022;2023-06-14T02:01:48;3.92;;;3.53;;
28836;SDS011;50669;50.982;11.022;2023-06-14T02:04:14;7.57;;;3.83;;
28836;SDS011;50669;50.982;11.022;2023-06-14T02:06:39;5.32;;;3.47;;
28836;SDS011;50669;50.982;11.022;2023-06-14T02:09:05;7.45;;;3.75;;
28836;SDS011;50669;50.982;11.022;2023-06-14T02:11:31;5.43;;;3.67;;
28836;SDS011;50669;50.982;11.022;2023-06-14T02:13:59;5.95;;;3.70;;
28836;SDS011;50669;50.982;11.022;2023-06-14T02:16:25;4.25;;;3.72;;
28836;SDS011;50669;50.982;11.022;2023-06-14T02:18:53;4.43;;;3.45;;
28836;SDS011;50669;50.982;11.022;2023-06-14T02:21:18;7.90;;;4.25;;
28836;SDS011;50669;50.982;11.022;2023-06-14T02:23:44;6.43;;;3.85;;
28836;SDS011;50669;50.982;11.022;2023-06-14T02:26:10;6.18;;;4.00;;
28836;SDS011;50669;50.982;11.022;2023-06-14T02:28:35;4.03;;;3.63;;
28836;SDS011;50669;50.982;11.022;2023-06-14T02:31:03;5.35;;;3.78;;
28836;SDS011;50669;50.982;11.022;2023-06-14T02:33:31;7.82;;;3.50;;
28836;SDS011;50669;50.982;11.022;2023-06-14T02:35:57;5.10;;;3.45;;
28836;SDS011;50669;50.982;11.022;2023-06-14T02:38:23;5.95;;;3.70;;
28836;SDS011;50669;50.982;11.022;2023-06-14T02:40:48;6.95;;;3.83;;
28836;SDS011;50669;50.982;11.022;2023-06-14T02:43:14;4.05;;;3.60;;
28836;SDS011;50669;50.982;11.022;2023-06-14T02:45:42;4.90;;;3.28;;
28836;SDS011;50669;50.982;11.022;2023-06-14T02:48:08;4.10;;;3.70;;
28836;SDS011;50669;50.982;11.022;2023-06-14T02:50:33;4.88;;;3.42;;
28836;SDS011;50669;50.982;11.022;2023-06-14T02:52:59;6.97;;;3.47;;
28836;SDS011;50669;50.982;11.022;2023-06-14T02:55:24;3.58;;;3.28;;
28836;SDS011;50669;50.982;11.022;2023-06-14T02:57:51;4.43;;;3.22;;
28836;SDS011;50669;50.982;11.022;2023-06-14T03:00:18;6.13;;;3.60;;
28836;SDS011;50669;50.982;11.022;2023-06-14T03:02:44;4.63;;;4.13;;
28836;SDS011;50669;50.982;11.022;2023-06-14T03:05:10;5.03;;;3.53;;
28836;SDS011;50669;50.982;11.022;2023-06-14T03:07:36;6.63;;;4.15;;
28836;SDS011;50669;50.982;11.022;2023-06-14T03:10:10;4.55;;;3.40;;
28836;SDS011;50669;50.982;11.022;2023-06-14T03:12:37;6.55;;;3.67;;
28836;SDS011;50669;50.982;11.022;2023-06-14T03:15:03;4.90;;;3.55;;
28836;SDS011;50669;50.982;11.022;2023-06-14T03:17:30;4.97;;;3.72;;
28836;SDS011;50669;50.982;11.022;2023-06-14T03:19:59;5.20;;;3.60;;
28836;SDS011;50669;50.982;11.022;2023-06-14T03:22:25;4.50;;;3.10;;
28836;SDS011;50669;50.982;11.022;2023-06-14T03:24:55;5.30;;;3.88;;
28836;SDS011;50669;50.982;11.022;2023-06-14T03:27:21;5.82;;;3.65;;
28836;SDS011;50669;50.982;11.022;2023-06-14T03:29:49;6.07;;;3.85;;
28836;SDS011;50669;50.982;11.022;2023-06-14T03:32:15;17.75;;;6.90;;
28836;SDS011;50669;50.982;11.022;2023-06-14T03:34:43;5.00;;;3.72;;
28836;SDS011;50669;50.982;11.022;2023-06-14T03:37:10;6.28;;;3.50;;
28836;SDS011;50669;50.982;11.022;2023-06-14T03:39:35;5.72;;;3.97;;
28836;SDS011;50669;50.982;11.022;2023-06-14T03:42:01;6.13;;;3.72;;
28836;SDS011;50669;50.982;11.022;2023-06-14T03:44:27;4.70;;;3.28;;
28836;SDS011;50669;50.982;11.022;2023-06-14T03:46:55;6.82;;;3.70;;
28836;SDS011;50669;50.982;11.022;2023-06-14T03:49:21;5.55;;;3.30;;
28836;SDS011;50669;50.982;11.022;2023-06-14T03:51:47;6.18;;;3.58;;
28836;SDS011;50669;50.982;11.022;2023-06-14T03:54:16;4.28;;;3.67;;
28836;SDS011;50669;50.982;11.022;2023-06-14T03:56:41;6.28;;;3.90;;
28836;SDS011;50669;50.982;11.022;2023-06-14T03:59:07;5.07;;;3.55;;
28836;SDS011;50669;50.982;11.022;2023-06-14T04:01:35;6.90;;;4.72;;
28836;SDS011;50669;50.982;11.022;2023-06-14T04:04:01;9.77;;;4.40;;
28836;SDS011;50669;50.982;11.022;2023-06-14T04:06:29;5.50;;;3.92;;
28836;SDS011;50669;50.982;11.022;2023-06-14T04:09:00;4.75;;;4.00;;
28836;SDS011;50669;50.982;11.022;2023-06-14T04:11:29;5.18;;;3.75;;
28836;SDS011;50669;50.982;11.022;2023-06-14T04:13:58;7.53;;;3.75;;
28836;SDS011;50669;50.982;11.022;2023-06-14T04:16:24;14.05;;;4.57;;
28836;SDS011;50669;50.982;11.022;2023-06-14T04:18:49;5.18;;;3.28;;
28836;SDS011;50669;50.982;11.022;2023-06-14T04:21:17;4.20;;;3.15;;
28836;SDS011;50669;50.982;11.022;2023-06-14T04:23:46;7.93;;;3.80;;
28836;SDS011;50669;50.982;11.022;2023-06-14T04:26:11;7.15;;;4.05;;
28836;SDS011;50669;50.982;11.022;2023-06-14T04:28:37;3.53;;;3.15;;
28836;SDS011;50669;50.982;11.022;2023-06-14T04:31:08;3.63;;;3.20;;
28836;SDS011;50669;50.982;11.022;2023-06-14T04:33:35;5.88;;;3.92;;
28836;SDS011;50669;50.982;11.022;2023-06-14T04:36:09;8.15;;;3.88;;
28836;SDS011;50669;50.982;11.022;2023-06-14T04:38:37;4.97;;;3.53;;
28836;SDS011;50669;50.982;11.022;2023-06-14T04:41:03;6.57;;;3.65;;
28836;SDS011;50669;50.982;11.022;2023-06-14T04:43:28;4.85;;;3.33;;
28836;SDS011;50669;50.982;11.022;2023-06-14T04:45:54;7.63;;;3.60;;
28836;SDS011;50669;50.982;11.022;2023-06-14T04:48:21;6.50;;;3.55;;
28836;SDS011;50669;50.982;11.022;2023-06-14T04:50:47;7.05;;;3.50;;
28836;SDS011;50669;50.982;11.022;2023-06-14T04:53:13;6.00;;;3.20;;
28836;SDS011;50669;50.982;11.022;2023-06-14T04:55:41;4.70;;;3.60;;
28836;SDS011;50669;50.982;11.022;2023-06-14T04:58:09;7.05;;;5.90;;
28836;SDS011;50669;50.982;11.022;2023-06-14T05:00:37;5.07;;;2.95;;
28836;SDS011;50669;50.982;11.022;2023-06-14T05:03:09;3.90;;;3.50;;
28836;SDS011;50669;50.982;11.022;2023-06-14T05:05:38;3.55;;;3.22;;
28836;SDS011;50669;50.982;11.022;2023-06-14T05:08:05;5.15;;;3.30;;
28836;SDS011;50669;50.982;11.022;2023-06-14T05:10:30;4.00;;;3.25;;
28836;SDS011;50669;50.982;11.022;2023-06-14T05:12:56;5.40;;;2.88;;
28836;SDS011;50669;50.982;11.022;2023-06-14T05:15:22;9.38;;;3.35;;
28836;SDS011;50669;50.982;11.022;2023-06-14T05:17:50;8.55;;;3.70;;
28836;SDS011;50669;50.982;11.022;2023-06-14T05:20:20;9.25;;;3.83;;
28836;SDS011;50669;50.982;11.022;2023-06-14T05:22:48;10.70;;;4.00;;
28836;SDS011;50669;50.982;11.022;2023-06-14T05:25:16;9.32;;;3.35;;
28836;SDS011;50669;50.982;11.022;2023-06-14T06:16:33;7.80;;;3.60;;
28836;SDS011;50669;50.982;11.022;2023-06-14T06:19:03;6.13;;;3.35;;
28836;SDS011;50669;50.982;11.022;2023-06-14T06:21:29;11.18;;;3.97;;
28836;SDS011;50669;50.982;11.022;2023-06-14T06:23:58;9.35;;;3.55;;
28836;SDS011;50669;50.982;11.022;2023-06-14T06:26:23;6.53;;;3.75;;
28836;SDS011;50669;50.982;11.022;2023-06-14T06:28:51;8.77;;;3.53;;
28836;SDS011;50669;50.982;11.022;2023-06-14T06:31:17;6.85;;;3.38;;
28836;SDS011;50669;50.982;11.022;2023-06-14T06:33:42;4.13;;;2.90;;
28836;SDS011;50669;50.982;11.022;2023-06-14T06:36:13;6.13;;;3.20;;
28836;SDS011;50669;50.982;11.022;2023-06-14T06:38:38;5.28;;;2.80;;
28836;SDS011;50669;50.982;11.022;2023-06-14T06:41:04;7.72;;;3.28;;
28836;SDS011;50669;50.982;11.022;2023-06-14T06:43:30;7.28;;;3.00;;
28836;SDS011;50669;50.982;11.022;2023-06-14T06:45:55;5.60;;;3.08;;
28836;SDS011;50669;50.982;11.022;2023-06-14T06:48:23;5.20;;;3.08;;
28836;SDS011;50669;50.982;11.022;2023-06-14T06:50:49;8.73;;;3.45;;
28836;SDS011;50669;50.982;11.022;2023-06-14T06:53:17;7.85;;;3.70;;
28836;SDS011;50669;50.982;11.022;2023-06-14T06:55:43;8.13;;;3.10;;
28836;SDS011;50669;50.982;11.022;2023-06-14T06:58:09;7.43;;;3.55;;
28836;SDS011;50669;50.982;11.022;2023-06-14T07:00:35;3.90;;;2.75;;
28836;SDS011;50669;50.982;11.022;2023-06-14T07:03:01;7.68;;;3.03;;
28836;SDS011;50669;50.982;11.022;2023-06-14T07:05:28;5.72;;;2.85;;
28836;SDS011;50669;50.982;11.022;2023-06-14T07:07:59;5.30;;;3.20;;
28836;SDS011;50669;50.982;11.022;2023-06-14T07:10:27;6.50;;;3.00;;
28836;SDS011;50669;50.982;11.022;2023-06-14T07:12:53;4.65;;;3.13;;
28836;SDS011;50669;50.982;11.022;2023-06-14T07:15:21;4.65;;;3.05;;
28836;SDS011;50669;50.982;11.022;2023-06-14T07:17:47;6.32;;;3.05;;
28836;SDS011;50669;50.982;11.022;2023-06-14T07:20:12;5.60;;;2.78;;
28836;SDS011;50669;50.982;11.022;2023-06-14T07:22:41;5.05;;;2.55;;
28836;SDS011;50669;50.982;11.022;2023-06-14T07:25:08;4.78;;;2.67;;
28836;SDS011;50669;50.982;11.022;2023-06-14T07:27:41;6.18;;;2.75;;
28836;SDS011;50669;50.982;11.022;2023-06-14T07:30:11;5.75;;;2.95;;
28836;SDS011;50669;50.982;11.022;2023-06-14T07:32:37;5.47;;;2.70;;
28836;SDS011;50669;50.982;11.022;2023-06-14T07:35:03;4.47;;;2.60;;
28836;SDS011;50669;50.982;11.022;2023-06-14T07:37:29;4.68;;;2.72;;
28836;SDS011;50669;50.982;11.022;2023-06-14T07:39:55;4.95;;;2.65;;
28836;SDS011;50669;50.982;11.022;2023-06-14T07:42:23;6.55;;;2.65;;
28836;SDS011;50669;50.982;11.022;2023-06-14T07:44:50;4.28;;;2.70;;
28836;SDS011;50669;50.982;11.022;2023-06-14T07:47:17;4.13;;;2.67;;
28836;SDS011;50669;50.982;11.022;2023-06-14T07:49:42;4.95;;;2.55;;
28836;SDS011;50669;50.982;11.022;2023-06-14T07:52:08;4.28;;;2.67;;
28836;SDS011;50669;50.982;11.022;2023-06-14T07:54:34;3.03;;;2.33;;
28836;SDS011;50669;50.982;11.022;2023-06-14T07:57:00;5.32;;;3.10;;
28836;SDS011;50669;50.982;11.022;2023-06-14T07:59:28;4.93;;;2.70;;
28836;SDS011;50669;50.982;11.022;2023-06-14T08:01:56;3.85;;;2.90;;
28836;SDS011;50669;50.982;11.022;2023-06-14T08:04:21;4.95;;;2.65;;
28836;SDS011;50669;50.982;11.022;2023-06-14T08:06:50;4.35;;;2.72;;
28836;SDS011;50669;50.982;11.022;2023-06-14T08:09:18;3.40;;;2.72;;
28836;SDS011;50669;50.982;11.022;2023-06-14T08:11:44;3.78;;;2.50;;
28836;SDS011;50669;50.982;11.022;2023-06-14T08:14:10;4.38;;;2.72;;
28836;SDS011;50669;50.982;11.022;2023-06-14T08:16:36;5.15;;;2.75;;
28836;SDS011;50669;50.982;11.022;2023-06-14T08:19:02;6.80;;;2.83;;
28836;SDS011;50669;50.982;11.022;2023-06-14T08:21:30;6.45;;;2.90;;
28836;SDS011;50669;50.982;11.022;2023-06-14T08:23:58;5.10;;;2.40;;
28836;SDS011;50669;50.982;11.022;2023-06-14T08:26:24;5.70;;;2.75;;
28836;SDS011;50669;50.982;11.022;2023-06-14T08:28:54;3.50;;;2.67;;
28836;SDS011;50669;50.982;11.022;2023-06-14T08:31:23;3.38;;;2.50;;
28836;SDS011;50669;50.982;11.022;2023-06-14T08:33:50;3.80;;;2.78;;
28836;SDS011;50669;50.982;11.022;2023-06-14T08:36:18;3.88;;;2.65;;
28836;SDS011;50669;50.982;11.022;2023-06-14T08:38:44;5.28;;;2.53;;
28836;SDS011;50669;50.982;11.022;2023-06-14T08:41:10;3.90;;;2.35;;
28836;SDS011;50669;50.982;11.022;2023-06-14T08:43:41;4.55;;;2.85;;
28836;SDS011;50669;50.982;11.022;2023-06-14T08:46:08;3.80;;;2.88;;
28836;SDS011;50669;50.982;11.022;2023-06-14T08:48:37;4.35;;;2.25;;
28836;SDS011;50669;50.982;11.022;2023-06-14T08:51:04;4.40;;;2.83;;
28836;SDS011;50669;50.982;11.022;2023-06-14T08:53:31;4.18;;;2.38;;
28836;SDS011;50669;50.982;11.022;2023-06-14T08:56:01;3.58;;;2.42;;
28836;SDS011;50669;50.982;11.022;2023-06-14T08:58:29;4.82;;;2.72;;
28836;SDS011;50669;50.982;11.022;2023-06-14T09:01:01;3.88;;;2.63;;
28836;SDS011;50669;50.982;11.022;2023-06-14T09:03:27;2.83;;;2.40;;
28836;SDS011;50669;50.982;11.022;2023-06-14T09:05:59;4.85;;;2.58;;
28836;SDS011;50669;50.982;11.022;2023-06-14T09:08:26;3.35;;;2.40;;
28836;SDS011;50669;50.982;11.022;2023-06-14T09:10:55;5.10;;;2.63;;
28836;SDS011;50669;50.982;11.022;2023-06-14T09:13:23;3.92;;;2.40;;
28836;SDS011;50669;50.982;11.022;2023-06-14T09:15:49;3.35;;;2.30;;
28836;SDS011;50669;50.982;11.022;2023-06-14T09:18:16;3.75;;;2.25;;
28836;SDS011;50669;50.982;11.022;2023-06-14T09:20:41;5.53;;;2.88;;
28836;SDS011;50669;50.982;11.022;2023-06-14T09:23:08;3.33;;;2.53;;
28836;SDS011;50669;50.982;11.022;2023-06-14T09:25:46;2.50;;;2.20;;
28836;SDS011;50669;50.982;11.022;2023-06-14T09:28:17;3.75;;;2.20;;
28836;SDS011;50669;50.982;11.022;2023-06-14T09:30:43;4.05;;;2.65;;
28836;SDS011;50669;50.982;11.022;2023-06-14T09:33:08;2.95;;;2.20;;
28836;SDS011;50669;50.982;11.022;2023-06-14T09:35:34;3.70;;;2.33;;
28836;SDS011;50669;50.982;11.022;2023-06-14T09:38:02;4.32;;;2.55;;
28836;SDS011;50669;50.982;11.022;2023-06-14T09:40:28;4.22;;;2.40;;
28836;SDS011;50669;50.982;11.022;2023-06-14T09:43:02;3.58;;;2.30;;
28836;SDS011;50669;50.982;11.022;2023-06-14T09:45:31;3.70;;;2.45;;
28836;SDS011;50669;50.982;11.022;2023-06-14T09:48:00;3.55;;;2.58;;
28836;SDS011;50669;50.982;11.022;2023-06-14T09:50:29;2.50;;;2.22;;
28836;SDS011;50669;50.982;11.022;2023-06-14T09:52:56;3.20;;;2.58;;
28836;SDS011;50669;50.982;11.022;2023-06-14T09:55:27;2.45;;;2.25;;
28836;SDS011;50669;50.982;11.022;2023-06-14T09:57:59;3.60;;;2.40;;
28836;SDS011;50669;50.982;11.022;2023-06-14T10:00:29;3.38;;;2.08;;
28836;SDS011;50669;50.982;11.022;2023-06-14T10:02:59;3.85;;;2.90;;
28836;SDS011;50669;50.982;11.022;2023-06-14T10:05:28;3.55;;;2.17;;
28836;SDS011;50669;50.982;11.022;2023-06-14T10:08:03;2.67;;;2.03;;
28836;SDS011;50669;50.982;11.022;2023-06-14T10:10:32;3.10;;;2.38;;
28836;SDS011;50669;50.982;11.022;2023-06-14T10:12:58;2.30;;;2.10;;
28836;SDS011;50669;50.982;11.022;2023-06-14T10:18:23;3.53;;;2.13;;
28836;SDS011;50669;50.982;11.022;2023-06-14T10:21:04;2.55;;;1.98;;
28836;SDS011;50669;50.982;11.022;2023-06-14T10:23:50;2.70;;;1.88;;
28836;SDS011;50669;50.982;11.022;2023-06-14T10:26:18;3.53;;;2.38;;
28836;SDS011;50669;50.982;11.022;2023-06-14T10:28:54;2.88;;;2.20;;
28836;SDS011;50669;50.982;11.022;2023-06-14T10:31:48;2.20;;;2.00;;
28836;SDS011;50669;50.982;11.022;2023-06-14T10:34:22;3.05;;;1.77;;
28836;SDS011;50669;50.982;11.022;2023-06-14T10:39:44;3.92;;;2.00;;
28836;SDS011;50669;50.982;11.022;2023-06-14T10:42:12;3.40;;;2.08;;
28836;SDS011;50669;50.982;11.022;2023-06-14T10:44:39;3.80;;;2.00;;
28836;SDS011;50669;50.982;11.022;2023-06-14T10:47:11;2.05;;;1.85;;
28836;SDS011;50669;50.982;11.022;2023-06-14T10:49:50;2.25;;;2.00;;
28836;SDS011;50669;50.982;11.022;2023-06-14T10:52:47;4.00;;;2.05;;
28836;SDS011;50669;50.982;11.022;2023-06-14T10:55:13;2.45;;;1.65;;
28836;SDS011;50669;50.982;11.022;2023-06-14T11:00:16;3.45;;;2.15;;
28836;SDS011;50669;50.982;11.022;2023-06-14T11:06:08;3.03;;;2.15;;
28836;SDS011;50669;50.982;11.022;2023-06-14T11:08:45;2.63;;;2.00;;
28836;SDS011;50669;50.982;11.022;2023-06-14T11:11:17;2.15;;;1.80;;
28836;SDS011;50669;50.982;11.022;2023-06-14T11:13:46;2.33;;;1.88;;
28836;SDS011;50669;50.982;11.022;2023-06-14T11:16:13;2.75;;;2.10;;
28836;SDS011;50669;50.982;11.022;2023-06-14T11:18:40;2.85;;;2.03;;
28836;SDS011;50669;50.982;11.022;2023-06-14T11:21:08;2.80;;;2.08;;
28836;SDS011;50669;50.982;11.022;2023-06-14T11:23:36;2.53;;;1.77;;
28836;SDS011;50669;50.982;11.022;2023-06-14T11:26:02;2.92;;;2.05;;
28836;SDS011;50669;50.982;11.022;2023-06-14T11:28:36;4.88;;;2.25;;
28836;SDS011;50669;50.982;11.022;2023-06-14T11:31:03;2.55;;;1.70;;
28836;SDS011;50669;50.982;11.022;2023-06-14T11:33:32;2.13;;;1.95;;
28836;SDS011;50669;50.982;11.022;2023-06-14T11:35:58;2.20;;;1.73;;
28836;SDS011;50669;50.982;11.022;2023-06-14T11:38:25;2.50;;;2.05;;
28836;SDS011;50669;50.982;11.022;2023-06-14T11:40:51;2.90;;;1.90;;
28836;SDS011;50669;50.982;11.022;2023-06-14T11:43:19;3.05;;;2.20;;
28836;SDS011;50669;50.982;11.022;2023-06-14T11:45:47;2.75;;;2.17;;
28836;SDS011;50669;50.982;11.022;2023-06-14T11:48:16;1.75;;;1.65;;
28836;SDS011;50669;50.982;11.022;2023-06-14T11:50:44;2.65;;;1.98;;
28836;SDS011;50669;50.982;11.022;2023-06-14T11:53:16;2.05;;;1.60;;
28836;SDS011;50669;50.982;11.022;2023-06-14T11:55:42;1.95;;;1.80;;
28836;SDS011;50669;50.982;11.022;2023-06-14T11:58:10;3.42;;;2.05;;
28836;SDS011;50669;50.982;11.022;2023-06-14T12:00:36;2.38;;;1.83;;
28836;SDS011;50669;50.982;11.022;2023-06-14T12:03:02;2.65;;;2.00;;
28836;SDS011;50669;50.982;11.022;2023-06-14T12:05:28;2.83;;;2.13;;
28836;SDS011;50669;50.982;11.022;2023-06-14T12:08:00;2.63;;;2.13;;
28836;SDS011;50669;50.982;11.022;2023-06-14T12:10:27;2.53;;;1.88;;
28836;SDS011;50669;50.982;11.022;2023-06-14T12:12:59;2.25;;;2.03;;
28836;SDS011;50669;50.982;11.022;2023-06-14T12:15:28;2.83;;;2.00;;
28836;SDS011;50669;50.982;11.022;2023-06-14T12:17:57;1.73;;;1.60;;
28836;SDS011;50669;50.982;11.022;2023-06-14T12:20:28;2.55;;;1.83;;
28836;SDS011;50669;50.982;11.022;2023-06-14T12:22:55;3.60;;;1.95;;
28836;SDS011;50669;50.982;11.022;2023-06-14T12:27:52;2.10;;;1.90;;
28836;SDS011;50669;50.982;11.022;2023-06-14T12:30:22;1.80;;;1.52;;
28836;SDS011;50669;50.982;11.022;2023-06-14T12:32:50;3.25;;;1.98;;
28836;SDS011;50669;50.982;11.022;2023-06-14T12:35:18;2.83;;;2.13;;
28836;SDS011;50669;50.982;11.022;2023-06-14T12:37:45;3.10;;;2.10;;
28836;SDS011;50669;50.982;11.022;2023-06-14T12:40:13;2.72;;;2.00;;
28836;SDS011;50669;50.982;11.022;2023-06-14T12:42:41;2.10;;;1.90;;
28836;SDS011;50669;50.982;11.022;2023-06-14T12:45:10;2.13;;;1.92;;
28836;SDS011;50669;50.982;11.022;2023-06-14T12:47:38;3.65;;;2.20;;
28836;SDS011;50669;50.982;11.022;2023-06-14T12:50:06;2.42;;;1.90;;
28836;SDS011;50669;50.982;11.022;2023-06-14T12:52:32;2.58;;;1.90;;
28836;SDS011;50669;50.982;11.022;2023-06-14T12:55:04;2.15;;;1.90;;
28836;SDS011;50669;50.982;11.022;2023-06-14T12:57:30;2.65;;;1.90;;
28836;SDS011;50669;50.982;11.022;2023-06-14T12:59:56;2.15;;;1.83;;
28836;SDS011;50669;50.982;11.022;2023-06-14T13:02:21;2.28;;;2.08;;
28836;SDS011;50669;50.982;11.022;2023-06-14T13:04:50;2.95;;;1.88;;
28836;SDS011;50669;50.982;11.022;2023-06-14T13:07:16;2.90;;;1.65;;
28836;SDS011;50669;50.982;11.022;2023-06-14T13:09:42;2.15;;;1.90;;
28836;SDS011;50669;50.982;11.022;2023-06-14T13:12:11;2.13;;;1.90;;
28836;SDS011;50669;50.982;11.022;2023-06-14T13:14:37;2.78;;;1.98;;
28836;SDS011;50669;50.982;11.022;2023-06-14T13:17:05;2.53;;;1.85;;
28836;SDS011;50669;50.982;11.022;2023-06-14T13:19:33;1.90;;;1.70;;
28836;SDS011;50669;50.982;11.022;2023-06-14T13:22:00;2.40;;;1.85;;
28836;SDS011;50669;50.982;11.022;2023-06-14T13:24:25;2.83;;;2.10;;
28836;SDS011;50669;50.982;11.022;2023-06-14T13:26:51;4.88;;;2.58;;
28836;SDS011;50669;50.982;11.022;2023-06-14T13:29:19;2.42;;;1.95;;
28836;SDS011;50669;50.982;11.022;2023-06-14T13:31:45;1.88;;;1.77;;
28836;SDS011;50669;50.982;11.022;2023-06-14T13:34:12;2.47;;;2.00;;
28836;SDS011;50669;50.982;11.022;2023-06-14T13:36:38;1.90;;;1.70;;
28836;SDS011;50669;50.982;11.022;2023-06-14T13:39:04;1.70;;;1.60;;
28836;SDS011;50669;50.982;11.022;2023-06-14T13:41:31;2.05;;;1.80;;
28836;SDS011;50669;50.982;11.022;2023-06-14T13:44:01;1.75;;;1.65;;
28836;SDS011;50669;50.982;11.022;2023-06-14T13:46:29;1.98;;;1.75;;
28836;SDS011;50669;50.982;11.022;2023-06-14T13:48:55;1.77;;;1.67;;
28836;SDS011;50669;50.982;11.022;2023-06-14T13:51:20;2.45;;;1.95;;
28836;SDS011;50669;50.982;11.022;2023-06-14T13:53:47;1.80;;;1.65;;
28836;SDS011;50669;50.982;11.022;2023-06-14T13:56:16;2.22;;;1.77;;
28836;SDS011;50669;50.982;11.022;2023-06-14T13:58:42;2.00;;;1.63;;
28836;SDS011;50669;50.982;11.022;2023-06-14T14:01:08;1.83;;;1.70;;
28836;SDS011;50669;50.982;11.022;2023-06-14T14:03:34;1.63;;;1.52;;
28836;SDS011;50669;50.982;11.022;2023-06-14T14:06:03;2.22;;;2.03;;
28836;SDS011;50669;50.982;11.022;2023-06-14T14:08:29;2.75;;;1.98;;
28836;SDS011;50669;50.982;11.022;2023-06-14T14:10:58;2.03;;;1.80;;
28836;SDS011;50669;50.982;11.022;2023-06-14T14:13:24;1.65;;;1.55;;
28836;SDS011;50669;50.982;11.022;2023-06-14T14:15:50;2.53;;;2.10;;
28836;SDS011;50669;50.982;11.022;2023-06-14T14:18:18;2.03;;;1.80;;
28836;SDS011;50669;50.982;11.022;2023-06-14T14:20:45;1.88;;;1.60;;
28836;SDS011;50669;50.982;11.022;2023-06-14T14:23:11;1.63;;;1.52;;
28836;SDS011;50669;50.982;11.022;2023-06-14T14:25:40;2.63;;;1.70;;
28836;SDS011;50669;50.982;11.022;2023-06-14T14:28:06;2.25;;;2.00;;
28836;SDS011;50669;50.982;11.022;2023-06-14T14:30:31;1.85;;;1.65;;
28836;SDS011;50669;50.982;11.022;2023-06-14T14:32:57;2.70;;;1.90;;
28836;SDS011;50669;50.982;11.022;2023-06-14T14:35:25;2.08;;;1.70;;
28836;SDS011;50669;50.982;11.022;2023-06-14T14:37:55;2.30;;;1.70;;
28836;SDS011;50669;50.982;11.022;2023-06-14T14:40:21;1.98;;;1.73;;
28836;SDS011;50669;50.982;11.022;2023-06-14T14:42:47;2.17;;;1.73;;
28836;SDS011;50669;50.982;11.022;2023-06-14T14:45:14;1.98;;;1.77;;
28836;SDS011;50669;50.982;11.022;2023-06-14T14:47:40;2.30;;;1.85;;
28836;SDS011;50669;50.982;11.022;2023-06-14T14:50:06;2.00;;;1.90;;
28836;SDS011;50669;50.982;11.022;2023-06-14T14:52:35;2.05;;;1.80;;
28836;SDS011;50669;50.982;11.022;2023-06-14T14:55:01;2.35;;;1.98;;
28836;SDS011;50669;50.982;11.022;2023-06-14T14:57:27;2.47;;;1.88;;
28836;SDS011;50669;50.982;11.022;2023-06-14T14:59:55;2.10;;;1.90;;
28836;SDS011;50669;50.982;11.022;2023-06-14T15:02:22;1.70;;;1.52;;
28836;SDS011;50669;50.982;11.022;2023-06-14T15:04:50;3.50;;;2.20;;
28836;SDS011;50669;50.982;11.022;2023-06-14T15:07:16;2.53;;;1.67;;
28836;SDS011;50669;50.982;11.022;2023-06-14T15:09:44;1.90;;;1.70;;
28836;SDS011;50669;50.982;11.022;2023-06-14T15:12:10;2.28;;;1.60;;
28836;SDS011;50669;50.982;11.022;2023-06-14T15:14:36;2.53;;;1.80;;
28836;SDS011;50669;50.982;11.022;2023-06-14T15:17:03;2.22;;;1.90;;
28836;SDS011;50669;50.982;11.022;2023-06-14T15:19:29;1.77;;;1.60;;
28836;SDS011;50669;50.982;11.022;2023-06-14T15:21:59;2.17;;;1.88;;
28836;SDS011;50669;50.982;11.022;2023-06-14T15:24:29;2.28;;;1.65;;
28836;SDS011;50669;50.982;11.022;2023-06-14T15:26:55;2.47;;;1.95;;
28836;SDS011;50669;50.982;11.022;2023-06-14T15:29:21;1.55;;;1.40;;
28836;SDS011;50669;50.982;11.022;2023-06-14T15:31:47;1.60;;;1.50;;
28836;SDS011;50669;50.982;11.022;2023-06-14T15:34:13;2.83;;;1.88;;
28836;SDS011;50669;50.982;11.022;2023-06-14T15:36:39;1.90;;;1.60;;
28836;SDS011;50669;50.982;11.022;2023-06-14T15:39:05;1.92;;;1.55;;
28836;SDS011;50669;50.982;11.022;2023-06-14T15:41:31;1.85;;;1.70;;
28836;SDS011;50669;50.982;11.022;2023-06-14T15:43:59;2.13;;;1.85;;
28836;SDS011;50669;50.982;11.022;2023-06-14T15:46:27;1.92;;;1.75;;
28836;SDS011;50669;50.982;11.022;2023-06-14T15:48:53;1.90;;;1.70;;